sensor_id;sensor_type;location;lat;lon;timestamp;temperature;humidity
1137;DHT22;557;48.466;7.950;2022-09-30T00:01:35;10.70;99.90
1137;DHT22;557;48.466;7.950;2022-09-30T00:04:22;10.70;99.90
1137;DHT22;557;48.466;7.950;2022-09-30T00:07:08;10.70;99.90
1137;DHT22;557;48.466;7.950;2022-09-30T00:09:54;10.70;99.90
1137;DHT22;557;48.466;7.950;2022-09-30T00:12:41;10.70;99.90
1137;DHT22;557;48.466;7.950;2022-09-30T00:15:26;10.70;99.90
1137;DHT22;557;48.466;7.950;2022-09-30T00:18:12;10.70;99.90
1137;DHT22;557;48.466;7.950;2022-09-30T00:20:58;10.70;99.90
1137;DHT22;557;48.466;7.950;2022-09-30T00:23:45;10.70;99.90
1137;DHT22;557;48.466;7.950;2022-09-30T00:26:31;10.60;99.90
1137;DHT22;557;48.466;7.950;2022-09-30T00:29:18;10.60;99.90
1137;DHT22;557;48.466;7.950;2022-09-30T00:32:04;10.60;99.90
1137;DHT22;557;48.466;7.950;2022-09-30T00:34:49;10.50;99.90
1137;DHT22;557;48.466;7.950;2022-09-30T00:37:35;10.50;99.90
1137;DHT22;557;48.466;7.950;2022-09-30T00:40:20;10.50;99.90
1137;DHT22;557;48.466;7.950;2022-09-30T00:43:12;10.50;99.90
1137;DHT22;557;48.466;7.950;2022-09-30T00:45:59;10.50;99.90
1137;DHT22;557;48.466;7.950;2022-09-30T00:48:47;10.40;99.90
1137;DHT22;557;48.466;7.950;2022-09-30T00:51:40;10.40;99.90
1137;DHT22;557;48.466;7.950;2022-09-30T00:54:28;10.40;99.90
1137;DHT22;557;48.466;7.950;2022-09-30T00:57:14;10.40;99.90
1137;DHT22;557;48.466;7.950;2022-09-30T01:00:02;10.40;99.90
1137;DHT22;557;48.466;7.950;2022-09-30T01:02:49;10.40;99.90
1137;DHT22;557;48.466;7.950;2022-09-30T01:05:35;10.40;99.90
1137;DHT22;557;48.466;7.950;2022-09-30T01:08:21;10.40;99.90
1137;DHT22;557;48.466;7.950;2022-09-30T01:11:07;10.30;99.90
1137;DHT22;557;48.466;7.950;2022-09-30T01:13:56;10.30;99.90
1137;DHT22;557;48.466;7.950;2022-09-30T01:16:52;10.30;99.90
1137;DHT22;557;48.466;7.950;2022-09-30T01:23:37;10.30;99.90
1137;DHT22;557;48.466;7.950;2022-09-30T01:27:03;10.20;99.90
1137;DHT22;557;48.466;7.950;2022-09-30T01:30:06;10.10;99.90
1137;DHT22;557;48.466;7.950;2022-09-30T01:33:02;10.20;99.90
1137;DHT22;557;48.466;7.950;2022-09-30T01:36:08;10.20;99.90
1137;DHT22;557;48.466;7.950;2022-09-30T01:39:06;10.20;99.90
1137;DHT22;557;48.466;7.950;2022-09-30T01:42:03;10.20;99.90
1137;DHT22;557;48.466;7.950;2022-09-30T01:44:57;10.20;99.90
1137;DHT22;557;48.466;7.950;2022-09-30T01:47:49;10.20;99.90
1137;DHT22;557;48.466;7.950;2022-09-30T01:50:41;10.20;99.90
1137;DHT22;557;48.466;7.950;2022-09-30T01:53:38;10.20;99.90
1137;DHT22;557;48.466;7.950;2022-09-30T01:56:29;10.20;99.90
1137;DHT22;557;48.466;7.950;2022-09-30T01:59:21;10.30;99.90
1137;DHT22;557;48.466;7.950;2022-09-30T02:02:11;10.20;99.90
1137;DHT22;557;48.466;7.950;2022-09-30T02:05:02;10.20;99.90
1137;DHT22;557;48.466;7.950;2022-09-30T02:07:54;10.20;99.90
1137;DHT22;557;48.466;7.950;2022-09-30T02:10:43;10.20;99.90
1137;DHT22;557;48.466;7.950;2022-09-30T02:13:33;10.30;99.90
1137;DHT22;557;48.466;7.950;2022-09-30T02:16:24;10.30;99.90
1137;DHT22;557;48.466;7.950;2022-09-30T02:19:13;10.30;99.90
1137;DHT22;557;48.466;7.950;2022-09-30T02:22:05;10.30;99.90
1137;DHT22;557;48.466;7.950;2022-09-30T02:24:56;10.30;99.90
1137;DHT22;557;48.466;7.950;2022-09-30T02:27:46;10.30;99.90
1137;DHT22;557;48.466;7.950;2022-09-30T02:30:34;10.30;99.90
1137;DHT22;557;48.466;7.950;2022-09-30T02:33:25;10.30;99.90
1137;DHT22;557;48.466;7.950;2022-09-30T02:36:19;10.30;99.90
1137;DHT22;557;48.466;7.950;2022-09-30T02:39:09;10.30;99.90
1137;DHT22;557;48.466;7.950;2022-09-30T02:42:00;10.30;99.90
1137;DHT22;557;48.466;7.950;2022-09-30T02:44:51;10.40;99.90
1137;DHT22;557;48.466;7.950;2022-09-30T02:47:47;10.40;99.90
1137;DHT22;557;48.466;7.950;2022-09-30T02:50:42;10.30;99.90
1137;DHT22;557;48.466;7.950;2022-09-30T02:53:34;10.30;99.90
1137;DHT22;557;48.466;7.950;2022-09-30T02:56:25;10.30;99.90
1137;DHT22;557;48.466;7.950;2022-09-30T02:59:15;10.30;99.90
1137;DHT22;557;48.466;7.950;2022-09-30T03:02:01;10.30;99.90
1137;DHT22;557;48.466;7.950;2022-09-30T03:04:48;10.30;99.90
1137;DHT22;557;48.466;7.950;2022-09-30T03:07:34;10.30;99.90
1137;DHT22;557;48.466;7.950;2022-09-30T03:10:21;10.30;99.90
1137;DHT22;557;48.466;7.950;2022-09-30T03:13:19;10.30;99.90
1137;DHT22;557;48.466;7.950;2022-09-30T03:16:15;10.20;99.90
1137;DHT22;557;48.466;7.950;2022-09-30T03:19:17;10.20;99.90
1137;DHT22;557;48.466;7.950;2022-09-30T03:22:28;10.20;99.90
1137;DHT22;557;48.466;7.950;2022-09-30T03:25:22;10.20;99.90
1137;DHT22;557;48.466;7.950;2022-09-30T03:28:20;10.20;99.90
1137;DHT22;557;48.466;7.950;2022-09-30T03:31:14;10.20;99.90
1137;DHT22;557;48.466;7.950;2022-09-30T03:34:10;10.20;99.90
1137;DHT22;557;48.466;7.950;2022-09-30T03:37:01;10.30;99.90
1137;DHT22;557;48.466;7.950;2022-09-30T03:39:55;10.30;99.90
1137;DHT22;557;48.466;7.950;2022-09-30T03:42:44;10.30;99.90
1137;DHT22;557;48.466;7.950;2022-09-30T03:45:35;10.30;99.90
1137;DHT22;557;48.466;7.950;2022-09-30T03:48:24;10.30;99.90
1137;DHT22;557;48.466;7.950;2022-09-30T03:51:12;10.30;99.90
1137;DHT22;557;48.466;7.950;2022-09-30T03:53:58;10.30;99.90
1137;DHT22;557;48.466;7.950;2022-09-30T03:56:44;10.30;99.90
1137;DHT22;557;48.466;7.950;2022-09-30T03:59:29;10.30;99.90
1137;DHT22;557;48.466;7.950;2022-09-30T04:02:14;10.30;99.90
1137;DHT22;557;48.466;7.950;2022-09-30T04:05:02;10.30;99.90
1137;DHT22;557;48.466;7.950;2022-09-30T04:07:48;10.30;99.90
1137;DHT22;557;48.466;7.950;2022-09-30T04:10:34;10.30;99.90
1137;DHT22;557;48.466;7.950;2022-09-30T04:13:20;10.30;99.90
1137;DHT22;557;48.466;7.950;2022-09-30T04:16:06;10.30;99.90
1137;DHT22;557;48.466;7.950;2022-09-30T04:18:52;10.30;99.90
1137;DHT22;557;48.466;7.950;2022-09-30T04:21:39;10.20;99.90
1137;DHT22;557;48.466;7.950;2022-09-30T04:24:24;10.20;99.90
1137;DHT22;557;48.466;7.950;2022-09-30T04:27:10;10.20;99.90
1137;DHT22;557;48.466;7.950;2022-09-30T04:29:55;10.10;99.90
1137;DHT22;557;48.466;7.950;2022-09-30T04:32:42;10.10;99.90
1137;DHT22;557;48.466;7.950;2022-09-30T04:35:28;10.00;99.90
1137;DHT22;557;48.466;7.950;2022-09-30T04:38:15;10.10;99.90
1137;DHT22;557;48.466;7.950;2022-09-30T04:41:02;10.10;99.90
1137;DHT22;557;48.466;7.950;2022-09-30T04:43:48;10.10;99.90
1137;DHT22;557;48.466;7.950;2022-09-30T04:46:35;10.00;99.90
1137;DHT22;557;48.466;7.950;2022-09-30T04:49:20;10.00;99.90
1137;DHT22;557;48.466;7.950;2022-09-30T04:52:07;10.00;99.90
1137;DHT22;557;48.466;7.950;2022-09-30T04:54:54;10.00;99.90
1137;DHT22;557;48.466;7.950;2022-09-30T04:57:42;9.90;99.90
1137;DHT22;557;48.466;7.950;2022-09-30T05:00:28;9.90;99.90
1137;DHT22;557;48.466;7.950;2022-09-30T05:03:14;9.80;99.90
1137;DHT22;557;48.466;7.950;2022-09-30T05:06:00;9.80;99.90
1137;DHT22;557;48.466;7.950;2022-09-30T05:08:46;9.80;99.90
1137;DHT22;557;48.466;7.950;2022-09-30T05:11:33;9.80;99.90
1137;DHT22;557;48.466;7.950;2022-09-30T05:14:21;9.70;99.90
1137;DHT22;557;48.466;7.950;2022-09-30T05:17:07;9.70;99.90
1137;DHT22;557;48.466;7.950;2022-09-30T05:19:52;9.80;99.90
1137;DHT22;557;48.466;7.950;2022-09-30T05:22:38;9.80;99.90
1137;DHT22;557;48.466;7.950;2022-09-30T05:25:23;9.80;99.90
1137;DHT22;557;48.466;7.950;2022-09-30T05:28:10;9.90;99.90
1137;DHT22;557;48.466;7.950;2022-09-30T05:30:57;9.90;99.90
1137;DHT22;557;48.466;7.950;2022-09-30T05:33:45;9.90;99.90
1137;DHT22;557;48.466;7.950;2022-09-30T05:36:31;9.90;99.90
1137;DHT22;557;48.466;7.950;2022-09-30T05:39:16;9.90;99.90
1137;DHT22;557;48.466;7.950;2022-09-30T05:42:02;9.90;99.90
1137;DHT22;557;48.466;7.950;2022-09-30T05:44:49;9.80;99.90
1137;DHT22;557;48.466;7.950;2022-09-30T05:47:35;9.70;99.90
1137;DHT22;557;48.466;7.950;2022-09-30T05:50:22;9.70;99.90
1137;DHT22;557;48.466;7.950;2022-09-30T05:53:07;9.60;99.90
1137;DHT22;557;48.466;7.950;2022-09-30T05:55:54;9.70;99.90
1137;DHT22;557;48.466;7.950;2022-09-30T05:58:40;9.80;99.90
1137;DHT22;557;48.466;7.950;2022-09-30T06:01:27;9.80;99.90
1137;DHT22;557;48.466;7.950;2022-09-30T06:04:13;9.90;99.90
1137;DHT22;557;48.466;7.950;2022-09-30T06:06:59;10.00;99.90
1137;DHT22;557;48.466;7.950;2022-09-30T06:09:45;10.10;99.90
1137;DHT22;557;48.466;7.950;2022-09-30T06:12:31;10.10;99.90
1137;DHT22;557;48.466;7.950;2022-09-30T06:15:17;10.00;99.90
1137;DHT22;557;48.466;7.950;2022-09-30T06:18:05;10.00;99.90
1137;DHT22;557;48.466;7.950;2022-09-30T06:20:51;10.10;99.90
1137;DHT22;557;48.466;7.950;2022-09-30T06:23:38;10.10;99.90
1137;DHT22;557;48.466;7.950;2022-09-30T06:26:24;10.10;99.90
1137;DHT22;557;48.466;7.950;2022-09-30T06:29:09;10.10;99.90
1137;DHT22;557;48.466;7.950;2022-09-30T06:31:55;10.10;99.90
1137;DHT22;557;48.466;7.950;2022-09-30T06:34:42;10.20;99.90
1137;DHT22;557;48.466;7.950;2022-09-30T06:37:28;10.20;99.90
1137;DHT22;557;48.466;7.950;2022-09-30T06:40:14;10.30;99.90
1137;DHT22;557;48.466;7.950;2022-09-30T06:43:00;10.30;99.90
1137;DHT22;557;48.466;7.950;2022-09-30T06:45:47;10.30;99.90
1137;DHT22;557;48.466;7.950;2022-09-30T06:48:34;10.40;99.90
1137;DHT22;557;48.466;7.950;2022-09-30T06:51:22;10.40;99.90
1137;DHT22;557;48.466;7.950;2022-09-30T06:54:09;10.40;99.90
1137;DHT22;557;48.466;7.950;2022-09-30T06:56:55;10.50;99.90
1137;DHT22;557;48.466;7.950;2022-09-30T06:59:41;10.50;99.90
1137;DHT22;557;48.466;7.950;2022-09-30T07:02:27;10.60;99.90
1137;DHT22;557;48.466;7.950;2022-09-30T07:05:13;10.60;99.90
1137;DHT22;557;48.466;7.950;2022-09-30T07:08:01;10.60;99.90
1137;DHT22;557;48.466;7.950;2022-09-30T07:10:47;10.60;99.90
1137;DHT22;557;48.466;7.950;2022-09-30T07:13:33;10.70;99.90
1137;DHT22;557;48.466;7.950;2022-09-30T07:16:19;10.80;99.90
1137;DHT22;557;48.466;7.950;2022-09-30T07:19:06;10.80;99.90
1137;DHT22;557;48.466;7.950;2022-09-30T07:21:52;10.90;99.90
1137;DHT22;557;48.466;7.950;2022-09-30T07:24:38;10.90;99.90
1137;DHT22;557;48.466;7.950;2022-09-30T07:27:24;10.90;99.90
1137;DHT22;557;48.466;7.950;2022-09-30T07:30:10;10.70;99.90
1137;DHT22;557;48.466;7.950;2022-09-30T07:32:56;10.70;99.90
1137;DHT22;557;48.466;7.950;2022-09-30T07:35:49;10.60;99.90
1137;DHT22;557;48.466;7.950;2022-09-30T07:38:37;10.60;99.90
1137;DHT22;557;48.466;7.950;2022-09-30T07:41:26;10.60;99.90
1137;DHT22;557;48.466;7.950;2022-09-30T07:44:13;10.70;99.90
1137;DHT22;557;48.466;7.950;2022-09-30T07:46:59;10.80;99.90
1137;DHT22;557;48.466;7.950;2022-09-30T07:49:44;10.70;99.90
1137;DHT22;557;48.466;7.950;2022-09-30T07:52:30;10.60;99.90
1137;DHT22;557;48.466;7.950;2022-09-30T07:55:16;10.60;99.90
1137;DHT22;557;48.466;7.950;2022-09-30T07:58:03;10.70;99.90
1137;DHT22;557;48.466;7.950;2022-09-30T08:00:49;10.70;99.90
1137;DHT22;557;48.466;7.950;2022-09-30T08:03:36;10.70;99.90
1137;DHT22;557;48.466;7.950;2022-09-30T08:06:23;10.70;99.90
1137;DHT22;557;48.466;7.950;2022-09-30T08:09:10;10.70;99.90
1137;DHT22;557;48.466;7.950;2022-09-30T08:11:56;10.70;99.90
1137;DHT22;557;48.466;7.950;2022-09-30T08:14:43;10.80;99.90
1137;DHT22;557;48.466;7.950;2022-09-30T08:17:28;10.80;99.90
1137;DHT22;557;48.466;7.950;2022-09-30T08:20:14;10.80;99.90
1137;DHT22;557;48.466;7.950;2022-09-30T08:23:00;10.80;99.90
1137;DHT22;557;48.466;7.950;2022-09-30T08:25:46;10.80;99.90
1137;DHT22;557;48.466;7.950;2022-09-30T08:28:32;10.80;99.90
1137;DHT22;557;48.466;7.950;2022-09-30T08:31:21;10.90;99.90
1137;DHT22;557;48.466;7.950;2022-09-30T08:34:07;11.00;99.90
1137;DHT22;557;48.466;7.950;2022-09-30T08:36:53;11.00;99.90
1137;DHT22;557;48.466;7.950;2022-09-30T08:39:38;11.10;99.90
1137;DHT22;557;48.466;7.950;2022-09-30T08:42:36;11.00;99.90
1137;DHT22;557;48.466;7.950;2022-09-30T08:45:35;11.10;99.90
1137;DHT22;557;48.466;7.950;2022-09-30T08:48:36;11.10;99.90
1137;DHT22;557;48.466;7.950;2022-09-30T08:51:29;11.20;99.90
1137;DHT22;557;48.466;7.950;2022-09-30T08:54:18;11.30;99.90
1137;DHT22;557;48.466;7.950;2022-09-30T08:57:05;11.40;99.90
1137;DHT22;557;48.466;7.950;2022-09-30T08:59:54;11.50;99.90
1137;DHT22;557;48.466;7.950;2022-09-30T09:02:44;11.50;99.20
1137;DHT22;557;48.466;7.950;2022-09-30T09:05:45;11.50;99.90
1137;DHT22;557;48.466;7.950;2022-09-30T09:08:40;11.50;99.90
1137;DHT22;557;48.466;7.950;2022-09-30T09:11:45;11.60;99.90
1137;DHT22;557;48.466;7.950;2022-09-30T09:14:41;11.60;97.00
1137;DHT22;557;48.466;7.950;2022-09-30T09:17:42;11.50;99.90
1137;DHT22;557;48.466;7.950;2022-09-30T09:20:37;11.60;99.90
1137;DHT22;557;48.466;7.950;2022-09-30T09:23:26;11.70;99.90
1137;DHT22;557;48.466;7.950;2022-09-30T09:26:14;11.80;99.90
1137;DHT22;557;48.466;7.950;2022-09-30T09:29:08;12.00;99.90
1137;DHT22;557;48.466;7.950;2022-09-30T09:32:00;12.10;99.90
1137;DHT22;557;48.466;7.950;2022-09-30T09:34:50;12.20;99.90
1137;DHT22;557;48.466;7.950;2022-09-30T09:37:46;12.40;99.90
1137;DHT22;557;48.466;7.950;2022-09-30T09:40:58;12.50;73.30
1137;DHT22;557;48.466;7.950;2022-09-30T09:43:53;12.50;58.10
1137;DHT22;557;48.466;7.950;2022-09-30T09:46:44;12.50;20.30
1137;DHT22;557;48.466;7.950;2022-09-30T09:49:33;12.60;77.20
1137;DHT22;557;48.466;7.950;2022-09-30T09:52:39;12.60;85.10
1137;DHT22;557;48.466;7.950;2022-09-30T09:55:28;12.70;59.20
1137;DHT22;557;48.466;7.950;2022-09-30T09:58:14;12.80;65.40
1137;DHT22;557;48.466;7.950;2022-09-30T10:01:09;12.90;70.20
1137;DHT22;557;48.466;7.950;2022-09-30T10:04:17;12.90;8.40
1137;DHT22;557;48.466;7.950;2022-09-30T10:07:13;13.10;1.00
1137;DHT22;557;48.466;7.950;2022-09-30T10:10:15;13.20;22.60
1137;DHT22;557;48.466;7.950;2022-09-30T10:13:01;13.30;18.20
1137;DHT22;557;48.466;7.950;2022-09-30T10:15:48;13.30;1.00
1137;DHT22;557;48.466;7.950;2022-09-30T10:18:36;13.30;1.00
1137;DHT22;557;48.466;7.950;2022-09-30T10:21:24;13.40;2.10
1137;DHT22;557;48.466;7.950;2022-09-30T10:24:18;13.60;1.00
1137;DHT22;557;48.466;7.950;2022-09-30T10:27:27;13.60;1.00
1137;DHT22;557;48.466;7.950;2022-09-30T10:30:13;13.70;1.00
1137;DHT22;557;48.466;7.950;2022-09-30T10:33:27;13.50;1.00
1137;DHT22;557;48.466;7.950;2022-09-30T10:36:16;13.60;1.00
1137;DHT22;557;48.466;7.950;2022-09-30T10:39:05;13.60;1.00
1137;DHT22;557;48.466;7.950;2022-09-30T10:42:00;13.50;1.00
1137;DHT22;557;48.466;7.950;2022-09-30T10:44:50;13.30;1.00
1137;DHT22;557;48.466;7.950;2022-09-30T10:47:43;13.20;1.00
1137;DHT22;557;48.466;7.950;2022-09-30T10:50:29;13.30;1.00
1137;DHT22;557;48.466;7.950;2022-09-30T10:53:20;13.60;1.00
1137;DHT22;557;48.466;7.950;2022-09-30T10:56:07;13.70;1.00
1137;DHT22;557;48.466;7.950;2022-09-30T10:58:53;13.50;1.00
1137;DHT22;557;48.466;7.950;2022-09-30T11:01:47;13.50;1.00
1137;DHT22;557;48.466;7.950;2022-09-30T11:04:38;13.70;1.00
1137;DHT22;557;48.466;7.950;2022-09-30T11:07:28;13.80;1.00
1137;DHT22;557;48.466;7.950;2022-09-30T11:10:28;13.80;1.00
1137;DHT22;557;48.466;7.950;2022-09-30T11:13:19;14.20;1.00
1137;DHT22;557;48.466;7.950;2022-09-30T11:16:14;14.80;1.00
1137;DHT22;557;48.466;7.950;2022-09-30T11:19:09;15.50;1.00
1137;DHT22;557;48.466;7.950;2022-09-30T11:22:02;15.50;99.90
1137;DHT22;557;48.466;7.950;2022-09-30T11:24:51;15.50;1.00
1137;DHT22;557;48.466;7.950;2022-09-30T11:27:47;15.70;1.00
1137;DHT22;557;48.466;7.950;2022-09-30T11:30:41;15.90;1.00
1137;DHT22;557;48.466;7.950;2022-09-30T11:33:48;16.30;99.90
1137;DHT22;557;48.466;7.950;2022-09-30T11:36:44;16.40;99.90
1137;DHT22;557;48.466;7.950;2022-09-30T11:39:50;16.60;99.90
1137;DHT22;557;48.466;7.950;2022-09-30T11:42:46;16.70;99.90
1137;DHT22;557;48.466;7.950;2022-09-30T11:45:40;16.90;99.90
1137;DHT22;557;48.466;7.950;2022-09-30T11:48:41;17.30;1.00
1137;DHT22;557;48.466;7.950;2022-09-30T11:51:34;17.60;99.90
1137;DHT22;557;48.466;7.950;2022-09-30T11:54:35;17.40;1.00
1137;DHT22;557;48.466;7.950;2022-09-30T11:57:26;17.60;1.00
1137;DHT22;557;48.466;7.950;2022-09-30T12:00:15;17.40;1.00
1137;DHT22;557;48.466;7.950;2022-09-30T12:03:06;17.50;1.00
1137;DHT22;557;48.466;7.950;2022-09-30T12:05:57;17.80;1.00
1137;DHT22;557;48.466;7.950;2022-09-30T12:08:47;18.30;99.90
1137;DHT22;557;48.466;7.950;2022-09-30T12:11:39;18.30;99.90
1137;DHT22;557;48.466;7.950;2022-09-30T12:14:32;18.20;1.00
1137;DHT22;557;48.466;7.950;2022-09-30T12:17:24;18.30;99.90
1137;DHT22;557;48.466;7.950;2022-09-30T12:20:15;18.40;99.90
1137;DHT22;557;48.466;7.950;2022-09-30T12:23:10;19.10;99.90
1137;DHT22;557;48.466;7.950;2022-09-30T12:25:59;19.60;99.90
1137;DHT22;557;48.466;7.950;2022-09-30T12:28:51;19.60;99.90
1137;DHT22;557;48.466;7.950;2022-09-30T12:32:23;19.20;99.90
1137;DHT22;557;48.466;7.950;2022-09-30T12:35:32;19.50;99.90
1137;DHT22;557;48.466;7.950;2022-09-30T12:38:50;19.80;99.90
1137;DHT22;557;48.466;7.950;2022-09-30T12:41:46;20.50;99.90
1137;DHT22;557;48.466;7.950;2022-09-30T12:48:02;22.30;99.90
1137;DHT22;557;48.466;7.950;2022-09-30T12:50:51;22.70;99.90
1137;DHT22;557;48.466;7.950;2022-09-30T12:53:39;22.10;99.90
1137;DHT22;557;48.466;7.950;2022-09-30T12:56:27;21.90;99.90
1137;DHT22;557;48.466;7.950;2022-09-30T12:59:14;21.90;99.90
1137;DHT22;557;48.466;7.950;2022-09-30T13:02:02;21.70;99.90
1137;DHT22;557;48.466;7.950;2022-09-30T13:04:50;21.90;99.90
1137;DHT22;557;48.466;7.950;2022-09-30T13:07:38;21.60;99.90
1137;DHT22;557;48.466;7.950;2022-09-30T13:10:44;21.70;99.90
1137;DHT22;557;48.466;7.950;2022-09-30T13:13:30;22.50;99.90
1137;DHT22;557;48.466;7.950;2022-09-30T13:16:56;23.20;99.90
1137;DHT22;557;48.466;7.950;2022-09-30T13:19:45;23.50;99.90
1137;DHT22;557;48.466;7.950;2022-09-30T13:22:54;24.50;99.90
1137;DHT22;557;48.466;7.950;2022-09-30T13:25:52;24.50;99.90
1137;DHT22;557;48.466;7.950;2022-09-30T13:28:38;24.90;99.90
1137;DHT22;557;48.466;7.950;2022-09-30T13:31:25;25.20;99.90
1137;DHT22;557;48.466;7.950;2022-09-30T13:34:12;24.90;99.90
1137;DHT22;557;48.466;7.950;2022-09-30T13:36:59;24.00;99.90
1137;DHT22;557;48.466;7.950;2022-09-30T13:39:50;24.00;99.90
1137;DHT22;557;48.466;7.950;2022-09-30T13:42:40;24.90;99.90
1137;DHT22;557;48.466;7.950;2022-09-30T13:45:33;25.90;99.90
1137;DHT22;557;48.466;7.950;2022-09-30T13:48:27;27.00;99.90
1137;DHT22;557;48.466;7.950;2022-09-30T13:51:14;27.60;99.90
1137;DHT22;557;48.466;7.950;2022-09-30T13:54:06;28.10;99.90
1137;DHT22;557;48.466;7.950;2022-09-30T13:56:54;28.40;99.30
1137;DHT22;557;48.466;7.950;2022-09-30T13:59:47;28.70;96.10
1137;DHT22;557;48.466;7.950;2022-09-30T14:03:05;28.00;85.90
1137;DHT22;557;48.466;7.950;2022-09-30T14:06:09;27.40;55.60
1137;DHT22;557;48.466;7.950;2022-09-30T14:09:23;26.20;51.50
1137;DHT22;557;48.466;7.950;2022-09-30T14:12:26;25.40;46.10
1137;DHT22;557;48.466;7.950;2022-09-30T14:15:31;25.70;59.20
1137;DHT22;557;48.466;7.950;2022-09-30T14:18:41;25.10;40.90
1137;DHT22;557;48.466;7.950;2022-09-30T14:21:34;24.50;36.40
1137;DHT22;557;48.466;7.950;2022-09-30T14:24:23;24.40;35.20
1137;DHT22;557;48.466;7.950;2022-09-30T14:27:28;24.00;31.10
1137;DHT22;557;48.466;7.950;2022-09-30T14:30:18;24.00;36.20
1137;DHT22;557;48.466;7.950;2022-09-30T14:33:09;24.10;32.70
1137;DHT22;557;48.466;7.950;2022-09-30T14:35:59;24.50;37.00
1137;DHT22;557;48.466;7.950;2022-09-30T14:38:48;24.80;33.50
1137;DHT22;557;48.466;7.950;2022-09-30T14:41:35;24.00;27.40
1137;DHT22;557;48.466;7.950;2022-09-30T14:44:27;23.50;26.70
1137;DHT22;557;48.466;7.950;2022-09-30T14:47:15;22.90;25.50
1137;DHT22;557;48.466;7.950;2022-09-30T14:50:06;23.20;31.40
1137;DHT22;557;48.466;7.950;2022-09-30T14:52:52;23.60;29.50
1137;DHT22;557;48.466;7.950;2022-09-30T14:55:41;23.20;25.40
1137;DHT22;557;48.466;7.950;2022-09-30T14:58:28;22.80;24.00
1137;DHT22;557;48.466;7.950;2022-09-30T15:01:16;22.60;22.60
1137;DHT22;557;48.466;7.950;2022-09-30T15:04:08;21.90;19.40
1137;DHT22;557;48.466;7.950;2022-09-30T15:06:57;21.80;21.00
1137;DHT22;557;48.466;7.950;2022-09-30T15:09:46;21.30;16.00
1137;DHT22;557;48.466;7.950;2022-09-30T15:12:34;21.10;15.30
1137;DHT22;557;48.466;7.950;2022-09-30T15:15:31;21.10;15.80
1137;DHT22;557;48.466;7.950;2022-09-30T15:18:24;20.90;14.80
1137;DHT22;557;48.466;7.950;2022-09-30T15:21:13;20.60;13.50
1137;DHT22;557;48.466;7.950;2022-09-30T15:23:59;20.40;13.90
1137;DHT22;557;48.466;7.950;2022-09-30T15:26:46;20.40;17.00
1137;DHT22;557;48.466;7.950;2022-09-30T15:29:32;20.30;13.20
1137;DHT22;557;48.466;7.950;2022-09-30T15:32:20;20.10;13.20
1137;DHT22;557;48.466;7.950;2022-09-30T15:35:11;19.80;11.70
1137;DHT22;557;48.466;7.950;2022-09-30T15:38:09;19.40;21.30
1137;DHT22;557;48.466;7.950;2022-09-30T15:41:00;19.10;15.90
1137;DHT22;557;48.466;7.950;2022-09-30T15:43:56;19.00;17.50
1137;DHT22;557;48.466;7.950;2022-09-30T15:47:00;19.10;20.30
1137;DHT22;557;48.466;7.950;2022-09-30T15:49:47;19.10;22.30
1137;DHT22;557;48.466;7.950;2022-09-30T15:52:38;19.10;23.40
1137;DHT22;557;48.466;7.950;2022-09-30T15:55:36;18.90;21.40
1137;DHT22;557;48.466;7.950;2022-09-30T15:58:33;19.10;52.40
1137;DHT22;557;48.466;7.950;2022-09-30T16:01:22;19.30;32.70
1137;DHT22;557;48.466;7.950;2022-09-30T16:04:11;19.40;28.60
1137;DHT22;557;48.466;7.950;2022-09-30T16:07:04;19.20;28.10
1137;DHT22;557;48.466;7.950;2022-09-30T16:09:53;19.10;58.50
1137;DHT22;557;48.466;7.950;2022-09-30T16:12:41;19.10;36.50
1137;DHT22;557;48.466;7.950;2022-09-30T16:15:35;19.00;34.30
1137;DHT22;557;48.466;7.950;2022-09-30T16:18:24;18.80;31.50
1137;DHT22;557;48.466;7.950;2022-09-30T16:21:27;18.70;35.90
1137;DHT22;557;48.466;7.950;2022-09-30T16:24:44;18.80;54.50
1137;DHT22;557;48.466;7.950;2022-09-30T16:27:31;18.80;40.80
1137;DHT22;557;48.466;7.950;2022-09-30T16:30:18;18.40;45.10
1137;DHT22;557;48.466;7.950;2022-09-30T16:33:05;17.90;60.60
1137;DHT22;557;48.466;7.950;2022-09-30T16:35:50;17.40;99.90
1137;DHT22;557;48.466;7.950;2022-09-30T16:38:37;17.10;99.90
1137;DHT22;557;48.466;7.950;2022-09-30T16:41:24;16.70;99.90
1137;DHT22;557;48.466;7.950;2022-09-30T16:44:11;16.50;99.90
1137;DHT22;557;48.466;7.950;2022-09-30T16:47:11;16.30;99.90
1137;DHT22;557;48.466;7.950;2022-09-30T16:49:58;16.10;99.90
1137;DHT22;557;48.466;7.950;2022-09-30T16:52:43;15.90;99.90
1137;DHT22;557;48.466;7.950;2022-09-30T16:55:29;15.70;99.90
1137;DHT22;557;48.466;7.950;2022-09-30T16:58:15;15.60;99.90
1137;DHT22;557;48.466;7.950;2022-09-30T17:01:03;15.60;99.90
1137;DHT22;557;48.466;7.950;2022-09-30T17:03:49;15.50;99.90
1137;DHT22;557;48.466;7.950;2022-09-30T17:06:36;15.20;99.90
1137;DHT22;557;48.466;7.950;2022-09-30T17:09:22;14.90;99.90
1137;DHT22;557;48.466;7.950;2022-09-30T17:12:07;14.70;18.30
1137;DHT22;557;48.466;7.950;2022-09-30T17:14:54;14.50;99.90
1137;DHT22;557;48.466;7.950;2022-09-30T17:17:42;14.30;1.00
1137;DHT22;557;48.466;7.950;2022-09-30T17:20:28;14.10;1.00
1137;DHT22;557;48.466;7.950;2022-09-30T17:23:13;14.00;1.00
1137;DHT22;557;48.466;7.950;2022-09-30T17:25:59;13.80;99.90
1137;DHT22;557;48.466;7.950;2022-09-30T17:28:48;13.70;1.00
1137;DHT22;557;48.466;7.950;2022-09-30T17:31:33;13.50;1.00
1137;DHT22;557;48.466;7.950;2022-09-30T17:34:20;13.40;1.00
1137;DHT22;557;48.466;7.950;2022-09-30T17:37:06;13.30;1.00
1137;DHT22;557;48.466;7.950;2022-09-30T17:39:51;13.20;1.00
1137;DHT22;557;48.466;7.950;2022-09-30T17:42:37;13.10;1.00
1137;DHT22;557;48.466;7.950;2022-09-30T17:45:42;13.00;1.00
1137;DHT22;557;48.466;7.950;2022-09-30T17:48:29;12.90;1.00
1137;DHT22;557;48.466;7.950;2022-09-30T17:51:16;12.80;1.00
1137;DHT22;557;48.466;7.950;2022-09-30T17:54:03;12.80;1.00
1137;DHT22;557;48.466;7.950;2022-09-30T17:56:49;12.60;1.00
1137;DHT22;557;48.466;7.950;2022-09-30T17:59:35;12.50;1.00
1137;DHT22;557;48.466;7.950;2022-09-30T18:02:20;12.40;21.30
1137;DHT22;557;48.466;7.950;2022-09-30T18:05:06;12.30;26.30
1137;DHT22;557;48.466;7.950;2022-09-30T18:07:54;12.20;55.90
1137;DHT22;557;48.466;7.950;2022-09-30T18:10:40;12.20;42.80
1137;DHT22;557;48.466;7.950;2022-09-30T18:13:26;12.10;50.20
1137;DHT22;557;48.466;7.950;2022-09-30T18:16:12;12.00;51.70
1137;DHT22;557;48.466;7.950;2022-09-30T18:18:58;11.90;68.30
1137;DHT22;557;48.466;7.950;2022-09-30T18:21:44;11.90;73.30
1137;DHT22;557;48.466;7.950;2022-09-30T18:24:31;11.90;71.90
1137;DHT22;557;48.466;7.950;2022-09-30T18:27:34;11.80;93.10
1137;DHT22;557;48.466;7.950;2022-09-30T18:30:20;11.80;99.10
1137;DHT22;557;48.466;7.950;2022-09-30T18:33:06;11.70;95.60
1137;DHT22;557;48.466;7.950;2022-09-30T18:35:52;11.70;99.90
1137;DHT22;557;48.466;7.950;2022-09-30T18:38:39;11.60;99.90
1137;DHT22;557;48.466;7.950;2022-09-30T18:41:27;11.50;99.90
1137;DHT22;557;48.466;7.950;2022-09-30T18:44:13;11.50;99.90
1137;DHT22;557;48.466;7.950;2022-09-30T18:46:58;11.40;99.90
1137;DHT22;557;48.466;7.950;2022-09-30T18:49:44;11.40;99.90
1137;DHT22;557;48.466;7.950;2022-09-30T18:52:30;11.30;99.90
1137;DHT22;557;48.466;7.950;2022-09-30T18:55:16;11.20;99.90
1137;DHT22;557;48.466;7.950;2022-09-30T18:58:03;11.10;99.90
1137;DHT22;557;48.466;7.950;2022-09-30T19:00:49;11.10;99.90
1137;DHT22;557;48.466;7.950;2022-09-30T19:03:34;11.00;99.90